Schedule Details


Flight Number: CTN412
Departure: Kastela (LDSP) at 13:00
Arrival: Frankfurt/main (EDDF) at 14:50
Route: ZDA DCT BUSET DCT VEKEN DCT ERKIR UQ863 TEKSI/N0450F300 UQ863 ETASA T163 PSA

Weather Information
LDSP 242130Z AUTO 27005KT 220V330 CAVOK 26/15 Q1017
EDDF 242150Z 07005KT CAVOK 23/16 Q1019 NOSIG
Schedule Frequency

Route Map